sensor_id;sensor_type;location;lat;lon;timestamp;P1;durP1;ratioP1;P2;durP2;ratioP2
19235;SDS011;9752;54.270;12.470;2023-12-29T00:02:26;13.87;;;7.03;;
19235;SDS011;9752;54.270;12.470;2023-12-29T00:07:29;10.63;;;7.00;;
19235;SDS011;9752;54.270;12.470;2023-12-29T00:12:30;10.70;;;7.33;;
19235;SDS011;9752;54.270;12.470;2023-12-29T00:17:32;11.40;;;7.37;;
19235;SDS011;9752;54.270;12.470;2023-12-29T00:22:38;8.30;;;6.60;;
19235;SDS011;9752;54.270;12.470;2023-12-29T00:27:40;7.40;;;6.67;;
19235;SDS011;9752;54.270;12.470;2023-12-29T00:32:41;18.33;;;7.60;;
19235;SDS011;9752;54.270;12.470;2023-12-29T00:37:44;13.60;;;7.63;;
19235;SDS011;9752;54.270;12.470;2023-12-29T00:42:46;14.50;;;7.60;;
19235;SDS011;9752;54.270;12.470;2023-12-29T00:47:48;8.97;;;8.07;;
19235;SDS011;9752;54.270;12.470;2023-12-29T00:52:52;9.40;;;7.60;;
19235;SDS011;9752;54.270;12.470;2023-12-29T00:57:53;9.13;;;8.17;;
19235;SDS011;9752;54.270;12.470;2023-12-29T01:02:55;10.40;;;7.40;;
19235;SDS011;9752;54.270;12.470;2023-12-29T01:07:58;9.70;;;7.80;;
19235;SDS011;9752;54.270;12.470;2023-12-29T01:13:00;9.07;;;7.93;;
19235;SDS011;9752;54.270;12.470;2023-12-29T01:18:01;10.03;;;8.00;;
19235;SDS011;9752;54.270;12.470;2023-12-29T01:23:05;11.00;;;7.70;;
19235;SDS011;9752;54.270;12.470;2023-12-29T01:28:06;10.00;;;8.03;;
19235;SDS011;9752;54.270;12.470;2023-12-29T01:33:08;9.40;;;7.77;;
19235;SDS011;9752;54.270;12.470;2023-12-29T01:38:11;12.60;;;7.17;;
19235;SDS011;9752;54.270;12.470;2023-12-29T01:43:14;8.00;;;6.53;;
19235;SDS011;9752;54.270;12.470;2023-12-29T01:48:15;8.47;;;6.00;;
19235;SDS011;9752;54.270;12.470;2023-12-29T01:53:18;8.40;;;5.97;;
19235;SDS011;9752;54.270;12.470;2023-12-29T01:58:20;10.83;;;5.80;;
19235;SDS011;9752;54.270;12.470;2023-12-29T02:03:22;11.53;;;5.57;;
19235;SDS011;9752;54.270;12.470;2023-12-29T02:08:25;8.13;;;5.80;;
19235;SDS011;9752;54.270;12.470;2023-12-29T02:13:27;13.00;;;6.43;;
19235;SDS011;9752;54.270;12.470;2023-12-29T02:18:28;10.63;;;5.40;;
19235;SDS011;9752;54.270;12.470;2023-12-29T02:23:34;9.47;;;5.60;;
19235;SDS011;9752;54.270;12.470;2023-12-29T02:28:39;14.53;;;6.80;;
19235;SDS011;9752;54.270;12.470;2023-12-29T02:33:43;9.13;;;5.50;;
19235;SDS011;9752;54.270;12.470;2023-12-29T02:38:48;6.90;;;5.60;;
19235;SDS011;9752;54.270;12.470;2023-12-29T02:43:52;11.97;;;6.13;;
19235;SDS011;9752;54.270;12.470;2023-12-29T02:48:53;12.80;;;6.93;;
19235;SDS011;9752;54.270;12.470;2023-12-29T02:53:55;14.43;;;5.93;;
19235;SDS011;9752;54.270;12.470;2023-12-29T02:58:58;6.77;;;6.10;;
19235;SDS011;9752;54.270;12.470;2023-12-29T03:04:00;10.70;;;6.53;;
19235;SDS011;9752;54.270;12.470;2023-12-29T03:09:02;14.20;;;7.20;;
19235;SDS011;9752;54.270;12.470;2023-12-29T03:14:06;12.90;;;6.63;;
19235;SDS011;9752;54.270;12.470;2023-12-29T03:19:07;14.07;;;6.70;;
19235;SDS011;9752;54.270;12.470;2023-12-29T03:24:09;11.30;;;6.33;;
19235;SDS011;9752;54.270;12.470;2023-12-29T03:29:12;16.10;;;6.47;;
19235;SDS011;9752;54.270;12.470;2023-12-29T03:34:13;12.47;;;6.07;;
19235;SDS011;9752;54.270;12.470;2023-12-29T03:39:15;12.13;;;6.10;;
19235;SDS011;9752;54.270;12.470;2023-12-29T03:44:19;7.33;;;5.53;;
19235;SDS011;9752;54.270;12.470;2023-12-29T03:49:22;7.07;;;5.70;;
19235;SDS011;9752;54.270;12.470;2023-12-29T03:54:24;7.07;;;5.27;;
19235;SDS011;9752;54.270;12.470;2023-12-29T03:59:27;10.27;;;5.77;;
19235;SDS011;9752;54.270;12.470;2023-12-29T04:04:29;9.57;;;6.67;;
19235;SDS011;9752;54.270;12.470;2023-12-29T04:09:31;6.47;;;5.33;;
19235;SDS011;9752;54.270;12.470;2023-12-29T04:14:34;8.07;;;5.33;;
19235;SDS011;9752;54.270;12.470;2023-12-29T04:19:35;10.00;;;5.77;;
19235;SDS011;9752;54.270;12.470;2023-12-29T04:24:37;9.50;;;5.77;;
19235;SDS011;9752;54.270;12.470;2023-12-29T04:29:41;10.07;;;5.90;;
19235;SDS011;9752;54.270;12.470;2023-12-29T04:34:42;18.40;;;7.03;;
19235;SDS011;9752;54.270;12.470;2023-12-29T04:39:44;12.13;;;6.20;;
19235;SDS011;9752;54.270;12.470;2023-12-29T04:44:47;9.90;;;6.00;;
19235;SDS011;9752;54.270;12.470;2023-12-29T04:49:48;8.20;;;6.40;;
19235;SDS011;9752;54.270;12.470;2023-12-29T04:54:50;14.17;;;6.43;;
19235;SDS011;9752;54.270;12.470;2023-12-29T04:59:54;12.87;;;6.23;;
19235;SDS011;9752;54.270;12.470;2023-12-29T05:04:55;7.90;;;5.27;;
19235;SDS011;9752;54.270;12.470;2023-12-29T05:09:57;5.33;;;4.83;;
19235;SDS011;9752;54.270;12.470;2023-12-29T05:15:00;9.17;;;5.20;;
19235;SDS011;9752;54.270;12.470;2023-12-29T05:20:02;10.53;;;5.47;;
19235;SDS011;9752;54.270;12.470;2023-12-29T05:25:04;9.27;;;4.93;;
19235;SDS011;9752;54.270;12.470;2023-12-29T05:30:08;10.80;;;6.57;;
19235;SDS011;9752;54.270;12.470;2023-12-29T05:35:10;5.80;;;5.23;;
19235;SDS011;9752;54.270;12.470;2023-12-29T05:40:12;13.23;;;5.13;;
19235;SDS011;9752;54.270;12.470;2023-12-29T05:45:16;7.80;;;4.83;;
19235;SDS011;9752;54.270;12.470;2023-12-29T05:50:18;5.47;;;4.93;;
19235;SDS011;9752;54.270;12.470;2023-12-29T05:55:20;7.80;;;4.37;;
19235;SDS011;9752;54.270;12.470;2023-12-29T06:00:23;13.03;;;5.80;;
19235;SDS011;9752;54.270;12.470;2023-12-29T06:05:25;6.73;;;4.60;;
19235;SDS011;9752;54.270;12.470;2023-12-29T06:10:27;11.93;;;5.60;;
19235;SDS011;9752;54.270;12.470;2023-12-29T06:15:30;7.73;;;4.50;;
19235;SDS011;9752;54.270;12.470;2023-12-29T06:20:31;8.13;;;4.73;;
19235;SDS011;9752;54.270;12.470;2023-12-29T06:25:33;8.07;;;3.97;;
19235;SDS011;9752;54.270;12.470;2023-12-29T06:30:36;4.37;;;3.90;;
19235;SDS011;9752;54.270;12.470;2023-12-29T06:35:38;7.03;;;5.13;;
19235;SDS011;9752;54.270;12.470;2023-12-29T06:40:40;4.30;;;4.00;;
19235;SDS011;9752;54.270;12.470;2023-12-29T06:45:43;4.30;;;3.90;;
19235;SDS011;9752;54.270;12.470;2023-12-29T06:50:45;4.07;;;3.87;;
19235;SDS011;9752;54.270;12.470;2023-12-29T06:55:47;5.43;;;5.03;;
19235;SDS011;9752;54.270;12.470;2023-12-29T07:00:51;4.87;;;4.40;;
19235;SDS011;9752;54.270;12.470;2023-12-29T07:05:53;4.60;;;4.30;;
19235;SDS011;9752;54.270;12.470;2023-12-29T07:10:55;7.07;;;5.13;;
19235;SDS011;9752;54.270;12.470;2023-12-29T07:15:58;8.13;;;4.57;;
19235;SDS011;9752;54.270;12.470;2023-12-29T07:21:00;11.27;;;5.50;;
19235;SDS011;9752;54.270;12.470;2023-12-29T07:26:02;10.37;;;5.63;;
19235;SDS011;9752;54.270;12.470;2023-12-29T07:31:05;8.37;;;5.50;;
19235;SDS011;9752;54.270;12.470;2023-12-29T07:36:07;13.13;;;5.10;;
19235;SDS011;9752;54.270;12.470;2023-12-29T07:41:09;12.77;;;5.30;;
19235;SDS011;9752;54.270;12.470;2023-12-29T07:46:12;10.43;;;6.23;;
19235;SDS011;9752;54.270;12.470;2023-12-29T07:51:14;15.57;;;5.83;;
19235;SDS011;9752;54.270;12.470;2023-12-29T07:56:16;15.90;;;5.73;;
19235;SDS011;9752;54.270;12.470;2023-12-29T08:01:19;10.00;;;5.23;;
19235;SDS011;9752;54.270;12.470;2023-12-29T08:06:20;17.57;;;5.70;;
19235;SDS011;9752;54.270;12.470;2023-12-29T08:11:22;11.03;;;6.40;;
19235;SDS011;9752;54.270;12.470;2023-12-29T08:16:25;14.03;;;6.43;;
19235;SDS011;9752;54.270;12.470;2023-12-29T08:21:27;14.03;;;6.40;;
19235;SDS011;9752;54.270;12.470;2023-12-29T08:26:29;18.73;;;6.90;;
19235;SDS011;9752;54.270;12.470;2023-12-29T08:31:32;13.43;;;6.33;;
19235;SDS011;9752;54.270;12.470;2023-12-29T08:36:33;7.67;;;5.17;;
19235;SDS011;9752;54.270;12.470;2023-12-29T08:41:35;19.47;;;6.40;;
19235;SDS011;9752;54.270;12.470;2023-12-29T08:46:38;13.30;;;5.57;;
19235;SDS011;9752;54.270;12.470;2023-12-29T08:51:40;15.97;;;5.90;;
19235;SDS011;9752;54.270;12.470;2023-12-29T08:56:42;13.93;;;5.70;;
19235;SDS011;9752;54.270;12.470;2023-12-29T09:01:45;11.60;;;5.57;;
19235;SDS011;9752;54.270;12.470;2023-12-29T09:06:47;18.13;;;5.53;;
19235;SDS011;9752;54.270;12.470;2023-12-29T09:11:48;15.40;;;6.00;;
19235;SDS011;9752;54.270;12.470;2023-12-29T09:16:51;11.33;;;5.40;;
19235;SDS011;9752;54.270;12.470;2023-12-29T09:21:54;19.47;;;6.63;;
19235;SDS011;9752;54.270;12.470;2023-12-29T09:26:55;10.77;;;5.87;;
19235;SDS011;9752;54.270;12.470;2023-12-29T09:31:58;19.80;;;6.17;;
19235;SDS011;9752;54.270;12.470;2023-12-29T09:37:00;10.33;;;5.23;;
19235;SDS011;9752;54.270;12.470;2023-12-29T09:42:02;18.53;;;7.33;;
19235;SDS011;9752;54.270;12.470;2023-12-29T09:47:07;18.13;;;7.00;;
19235;SDS011;9752;54.270;12.470;2023-12-29T09:52:11;18.27;;;7.00;;
19235;SDS011;9752;54.270;12.470;2023-12-29T09:57:14;22.13;;;6.90;;
19235;SDS011;9752;54.270;12.470;2023-12-29T10:02:18;14.53;;;5.83;;
19235;SDS011;9752;54.270;12.470;2023-12-29T10:07:23;19.17;;;5.40;;
19235;SDS011;9752;54.270;12.470;2023-12-29T10:12:27;13.87;;;5.87;;
19235;SDS011;9752;54.270;12.470;2023-12-29T10:17:34;12.50;;;5.43;;
19235;SDS011;9752;54.270;12.470;2023-12-29T10:22:45;15.90;;;6.00;;
19235;SDS011;9752;54.270;12.470;2023-12-29T10:27:52;14.10;;;5.67;;
19235;SDS011;9752;54.270;12.470;2023-12-29T10:32:55;22.40;;;6.30;;
19235;SDS011;9752;54.270;12.470;2023-12-29T10:38:07;11.97;;;5.53;;
19235;SDS011;9752;54.270;12.470;2023-12-29T10:43:10;16.63;;;6.47;;
19235;SDS011;9752;54.270;12.470;2023-12-29T10:48:14;11.03;;;6.00;;
19235;SDS011;9752;54.270;12.470;2023-12-29T10:53:24;10.10;;;5.47;;
19235;SDS011;9752;54.270;12.470;2023-12-29T10:58:25;11.93;;;5.00;;
19235;SDS011;9752;54.270;12.470;2023-12-29T11:03:30;9.50;;;5.50;;
19235;SDS011;9752;54.270;12.470;2023-12-29T11:08:32;12.73;;;5.93;;
19235;SDS011;9752;54.270;12.470;2023-12-29T11:13:36;11.40;;;5.77;;
19235;SDS011;9752;54.270;12.470;2023-12-29T11:18:39;15.20;;;5.90;;
19235;SDS011;9752;54.270;12.470;2023-12-29T11:23:43;8.63;;;6.80;;
19235;SDS011;9752;54.270;12.470;2023-12-29T11:28:46;13.53;;;6.73;;
19235;SDS011;9752;54.270;12.470;2023-12-29T11:33:50;8.30;;;7.50;;
19235;SDS011;9752;54.270;12.470;2023-12-29T11:38:57;11.83;;;7.70;;
19235;SDS011;9752;54.270;12.470;2023-12-29T11:44:03;17.40;;;8.37;;
19235;SDS011;9752;54.270;12.470;2023-12-29T11:49:06;19.43;;;8.83;;
19235;SDS011;9752;54.270;12.470;2023-12-29T11:54:08;10.77;;;9.00;;
19235;SDS011;9752;54.270;12.470;2023-12-29T11:59:13;14.00;;;9.27;;
19235;SDS011;9752;54.270;12.470;2023-12-29T12:04:36;16.23;;;8.83;;
19235;SDS011;9752;54.270;12.470;2023-12-29T12:09:39;14.97;;;9.30;;
19235;SDS011;9752;54.270;12.470;2023-12-29T12:14:49;16.07;;;8.10;;
19235;SDS011;9752;54.270;12.470;2023-12-29T12:19:53;11.77;;;7.80;;
19235;SDS011;9752;54.270;12.470;2023-12-29T12:24:58;14.87;;;9.00;;
19235;SDS011;9752;54.270;12.470;2023-12-29T12:30:01;14.70;;;9.53;;
19235;SDS011;9752;54.270;12.470;2023-12-29T12:35:05;13.93;;;8.20;;
19235;SDS011;9752;54.270;12.470;2023-12-29T12:40:24;18.77;;;9.53;;
19235;SDS011;9752;54.270;12.470;2023-12-29T12:45:27;16.50;;;8.30;;
19235;SDS011;9752;54.270;12.470;2023-12-29T12:50:30;15.93;;;9.00;;
19235;SDS011;9752;54.270;12.470;2023-12-29T12:55:32;13.93;;;8.27;;
19235;SDS011;9752;54.270;12.470;2023-12-29T13:00:36;18.90;;;9.33;;
19235;SDS011;9752;54.270;12.470;2023-12-29T13:05:39;18.67;;;9.07;;
19235;SDS011;9752;54.270;12.470;2023-12-29T13:10:41;12.03;;;7.70;;
19235;SDS011;9752;54.270;12.470;2023-12-29T13:15:46;14.33;;;7.50;;
19235;SDS011;9752;54.270;12.470;2023-12-29T13:20:50;17.27;;;7.13;;
19235;SDS011;9752;54.270;12.470;2023-12-29T13:25:53;16.83;;;7.27;;
19235;SDS011;9752;54.270;12.470;2023-12-29T13:30:56;20.17;;;8.10;;
19235;SDS011;9752;54.270;12.470;2023-12-29T13:36:04;20.77;;;7.67;;
19235;SDS011;9752;54.270;12.470;2023-12-29T13:41:11;15.23;;;8.47;;
19235;SDS011;9752;54.270;12.470;2023-12-29T13:46:15;16.10;;;8.60;;
19235;SDS011;9752;54.270;12.470;2023-12-29T13:51:19;12.53;;;7.17;;
19235;SDS011;9752;54.270;12.470;2023-12-29T13:56:24;16.07;;;7.13;;
19235;SDS011;9752;54.270;12.470;2023-12-29T14:01:26;19.03;;;8.03;;
19235;SDS011;9752;54.270;12.470;2023-12-29T14:06:31;17.83;;;7.03;;
19235;SDS011;9752;54.270;12.470;2023-12-29T14:11:43;11.70;;;6.80;;
19235;SDS011;9752;54.270;12.470;2023-12-29T14:16:45;16.83;;;6.63;;
19235;SDS011;9752;54.270;12.470;2023-12-29T14:21:48;13.50;;;6.17;;
19235;SDS011;9752;54.270;12.470;2023-12-29T14:26:54;15.23;;;5.70;;
19235;SDS011;9752;54.270;12.470;2023-12-29T14:31:58;14.30;;;5.63;;
19235;SDS011;9752;54.270;12.470;2023-12-29T14:37:01;12.97;;;11.43;;
19235;SDS011;9752;54.270;12.470;2023-12-29T14:42:03;15.90;;;13.77;;
19235;SDS011;9752;54.270;12.470;2023-12-29T14:47:05;22.20;;;16.53;;
19235;SDS011;9752;54.270;12.470;2023-12-29T14:52:08;23.17;;;16.40;;
19235;SDS011;9752;54.270;12.470;2023-12-29T14:57:10;17.83;;;16.40;;
19235;SDS011;9752;54.270;12.470;2023-12-29T15:02:12;18.47;;;15.50;;
19235;SDS011;9752;54.270;12.470;2023-12-29T15:07:15;23.27;;;16.20;;
19235;SDS011;9752;54.270;12.470;2023-12-29T15:12:18;19.23;;;15.90;;
19235;SDS011;9752;54.270;12.470;2023-12-29T15:17:19;20.40;;;17.13;;
19235;SDS011;9752;54.270;12.470;2023-12-29T15:22:23;21.90;;;17.43;;
19235;SDS011;9752;54.270;12.470;2023-12-29T15:27:26;26.07;;;17.00;;
19235;SDS011;9752;54.270;12.470;2023-12-29T15:32:28;19.57;;;17.53;;
19235;SDS011;9752;54.270;12.470;2023-12-29T15:37:31;18.93;;;17.33;;
19235;SDS011;9752;54.270;12.470;2023-12-29T15:42:32;20.90;;;17.83;;
19235;SDS011;9752;54.270;12.470;2023-12-29T15:47:34;25.83;;;16.20;;
19235;SDS011;9752;54.270;12.470;2023-12-29T15:52:37;17.97;;;15.97;;
19235;SDS011;9752;54.270;12.470;2023-12-29T15:57:39;21.27;;;15.70;;
19235;SDS011;9752;54.270;12.470;2023-12-29T16:02:41;16.47;;;14.70;;
19235;SDS011;9752;54.270;12.470;2023-12-29T16:07:44;19.40;;;15.23;;
19235;SDS011;9752;54.270;12.470;2023-12-29T16:12:45;18.20;;;15.83;;
19235;SDS011;9752;54.270;12.470;2023-12-29T16:17:47;21.33;;;15.40;;
19235;SDS011;9752;54.270;12.470;2023-12-29T16:22:50;17.63;;;15.27;;
19235;SDS011;9752;54.270;12.470;2023-12-29T16:27:52;18.90;;;16.90;;
19235;SDS011;9752;54.270;12.470;2023-12-29T16:32:54;18.47;;;16.47;;
19235;SDS011;9752;54.270;12.470;2023-12-29T16:37:59;17.37;;;15.87;;
19235;SDS011;9752;54.270;12.470;2023-12-29T16:43:01;17.10;;;15.77;;
19235;SDS011;9752;54.270;12.470;2023-12-29T16:48:02;19.53;;;17.77;;
19235;SDS011;9752;54.270;12.470;2023-12-29T16:53:06;17.63;;;16.20;;
19235;SDS011;9752;54.270;12.470;2023-12-29T16:58:08;17.87;;;14.50;;
19235;SDS011;9752;54.270;12.470;2023-12-29T17:03:10;13.57;;;12.27;;
19235;SDS011;9752;54.270;12.470;2023-12-29T17:08:13;14.83;;;13.43;;
19235;SDS011;9752;54.270;12.470;2023-12-29T17:13:15;14.90;;;12.43;;
19235;SDS011;9752;54.270;12.470;2023-12-29T17:18:17;18.07;;;12.80;;
19235;SDS011;9752;54.270;12.470;2023-12-29T17:23:20;21.93;;;12.10;;
19235;SDS011;9752;54.270;12.470;2023-12-29T17:28:23;13.73;;;12.30;;
19235;SDS011;9752;54.270;12.470;2023-12-29T17:33:24;16.47;;;12.40;;
19235;SDS011;9752;54.270;12.470;2023-12-29T17:38:27;15.60;;;11.63;;
19235;SDS011;9752;54.270;12.470;2023-12-29T17:43:29;17.40;;;11.93;;
19235;SDS011;9752;54.270;12.470;2023-12-29T17:48:31;13.23;;;11.63;;
19235;SDS011;9752;54.270;12.470;2023-12-29T17:53:34;19.50;;;11.17;;
19235;SDS011;9752;54.270;12.470;2023-12-29T17:58:36;17.13;;;10.07;;
19235;SDS011;9752;54.270;12.470;2023-12-29T18:03:38;11.23;;;9.33;;
19235;SDS011;9752;54.270;12.470;2023-12-29T18:08:42;12.37;;;9.23;;
19235;SDS011;9752;54.270;12.470;2023-12-29T18:13:44;15.50;;;8.63;;
19235;SDS011;9752;54.270;12.470;2023-12-29T18:18:46;15.23;;;9.37;;
19235;SDS011;9752;54.270;12.470;2023-12-29T18:23:49;16.83;;;8.50;;
19235;SDS011;9752;54.270;12.470;2023-12-29T18:28:50;16.43;;;10.33;;
19235;SDS011;9752;54.270;12.470;2023-12-29T18:33:52;14.80;;;9.37;;
19235;SDS011;9752;54.270;12.470;2023-12-29T18:38:55;15.63;;;8.70;;
19235;SDS011;9752;54.270;12.470;2023-12-29T18:43:56;15.63;;;8.50;;
19235;SDS011;9752;54.270;12.470;2023-12-29T18:48:58;15.07;;;8.87;;
19235;SDS011;9752;54.270;12.470;2023-12-29T18:54:02;21.17;;;10.53;;
19235;SDS011;9752;54.270;12.470;2023-12-29T18:59:04;16.97;;;9.73;;
19235;SDS011;9752;54.270;12.470;2023-12-29T19:04:12;21.40;;;10.43;;
19235;SDS011;9752;54.270;12.470;2023-12-29T19:09:16;22.63;;;9.30;;
19235;SDS011;9752;54.270;12.470;2023-12-29T19:14:18;21.23;;;10.27;;
19235;SDS011;9752;54.270;12.470;2023-12-29T19:19:19;17.73;;;9.43;;
19235;SDS011;9752;54.270;12.470;2023-12-29T19:24:24;16.53;;;10.77;;
19235;SDS011;9752;54.270;12.470;2023-12-29T19:29:25;18.17;;;9.67;;
19235;SDS011;9752;54.270;12.470;2023-12-29T19:34:27;20.03;;;10.70;;
19235;SDS011;9752;54.270;12.470;2023-12-29T19:39:30;18.47;;;9.97;;
19235;SDS011;9752;54.270;12.470;2023-12-29T19:44:32;22.70;;;9.63;;
19235;SDS011;9752;54.270;12.470;2023-12-29T19:49:34;20.83;;;9.33;;
19235;SDS011;9752;54.270;12.470;2023-12-29T19:54:37;20.63;;;9.27;;
19235;SDS011;9752;54.270;12.470;2023-12-29T19:59:39;18.83;;;10.13;;
19235;SDS011;9752;54.270;12.470;2023-12-29T20:04:41;18.07;;;9.23;;
19235;SDS011;9752;54.270;12.470;2023-12-29T20:09:45;13.47;;;8.63;;
19235;SDS011;9752;54.270;12.470;2023-12-29T20:14:46;20.53;;;9.60;;
19235;SDS011;9752;54.270;12.470;2023-12-29T20:19:48;23.80;;;9.90;;
19235;SDS011;9752;54.270;12.470;2023-12-29T20:24:52;18.03;;;8.53;;
19235;SDS011;9752;54.270;12.470;2023-12-29T20:29:53;26.13;;;8.60;;
19235;SDS011;9752;54.270;12.470;2023-12-29T20:34:55;24.60;;;9.57;;
19235;SDS011;9752;54.270;12.470;2023-12-29T20:39:59;14.03;;;8.53;;
19235;SDS011;9752;54.270;12.470;2023-12-29T20:45:01;21.47;;;9.03;;
19235;SDS011;9752;54.270;12.470;2023-12-29T20:50:03;20.77;;;9.83;;
19235;SDS011;9752;54.270;12.470;2023-12-29T20:55:07;20.93;;;8.83;;
19235;SDS011;9752;54.270;12.470;2023-12-29T21:00:09;15.80;;;8.80;;
19235;SDS011;9752;54.270;12.470;2023-12-29T21:05:12;20.43;;;9.07;;
19235;SDS011;9752;54.270;12.470;2023-12-29T21:10:15;19.40;;;9.17;;
19235;SDS011;9752;54.270;12.470;2023-12-29T21:15:16;21.60;;;8.70;;
19235;SDS011;9752;54.270;12.470;2023-12-29T21:20:18;16.80;;;8.93;;
19235;SDS011;9752;54.270;12.470;2023-12-29T21:25:21;21.63;;;8.40;;
19235;SDS011;9752;54.270;12.470;2023-12-29T21:30:23;12.03;;;7.50;;
19235;SDS011;9752;54.270;12.470;2023-12-29T21:35:25;18.23;;;8.80;;
19235;SDS011;9752;54.270;12.470;2023-12-29T21:40:28;13.37;;;8.77;;
19235;SDS011;9752;54.270;12.470;2023-12-29T21:45:29;15.70;;;8.70;;
19235;SDS011;9752;54.270;12.470;2023-12-29T21:50:31;16.00;;;8.50;;
19235;SDS011;9752;54.270;12.470;2023-12-29T21:55:34;12.97;;;8.13;;
19235;SDS011;9752;54.270;12.470;2023-12-29T22:00:38;15.23;;;8.83;;
19235;SDS011;9752;54.270;12.470;2023-12-29T22:05:41;17.40;;;9.00;;
19235;SDS011;9752;54.270;12.470;2023-12-29T22:10:44;16.27;;;9.60;;
19235;SDS011;9752;54.270;12.470;2023-12-29T22:15:46;17.80;;;9.27;;
19235;SDS011;9752;54.270;12.470;2023-12-29T22:20:48;25.30;;;10.33;;
19235;SDS011;9752;54.270;12.470;2023-12-29T22:25:51;28.97;;;9.60;;
19235;SDS011;9752;54.270;12.470;2023-12-29T22:30:54;13.73;;;8.87;;
19235;SDS011;9752;54.270;12.470;2023-12-29T22:35:56;20.50;;;9.60;;
19235;SDS011;9752;54.270;12.470;2023-12-29T22:40:59;18.13;;;10.00;;
19235;SDS011;9752;54.270;12.470;2023-12-29T22:46:00;19.73;;;9.13;;
19235;SDS011;9752;54.270;12.470;2023-12-29T22:51:03;26.33;;;9.50;;
19235;SDS011;9752;54.270;12.470;2023-12-29T22:56:07;13.80;;;9.77;;
19235;SDS011;9752;54.270;12.470;2023-12-29T23:01:09;19.03;;;9.00;;
19235;SDS011;9752;54.270;12.470;2023-12-29T23:06:11;21.37;;;9.63;;
19235;SDS011;9752;54.270;12.470;2023-12-29T23:11:14;10.40;;;8.27;;
19235;SDS011;9752;54.270;12.470;2023-12-29T23:16:16;13.03;;;8.67;;
19235;SDS011;9752;54.270;12.470;2023-12-29T23:21:18;15.77;;;8.83;;
19235;SDS011;9752;54.270;12.470;2023-12-29T23:26:21;16.67;;;8.17;;
19235;SDS011;9752;54.270;12.470;2023-12-29T23:31:24;23.20;;;8.13;;
19235;SDS011;9752;54.270;12.470;2023-12-29T23:36:26;17.90;;;7.27;;
19235;SDS011;9752;54.270;12.470;2023-12-29T23:41:29;19.20;;;7.50;;
19235;SDS011;9752;54.270;12.470;2023-12-29T23:46:30;15.80;;;6.60;;
19235;SDS011;9752;54.270;12.470;2023-12-29T23:51:32;17.07;;;7.70;;
19235;SDS011;9752;54.270;12.470;2023-12-29T23:56:37;12.53;;;6.60;;
